createdAt,value
2022-10-11T00:00:54.119Z,0.60
2022-10-11T00:03:22.426Z,0.80
2022-10-11T00:05:50.679Z,0.50
2022-10-11T00:08:18.950Z,0.50
2022-10-11T00:10:47.465Z,0.47
2022-10-11T00:13:15.784Z,0.73
2022-10-11T00:15:44.068Z,0.60
2022-10-11T00:18:13.703Z,0.40
2022-10-11T00:20:42.052Z,0.77
2022-10-11T00:23:10.302Z,0.45
2022-10-11T00:25:39.164Z,0.93
2022-10-11T00:28:07.567Z,0.50
2022-10-11T00:30:36.073Z,1.08
2022-10-11T00:33:04.344Z,0.95
2022-10-11T00:35:34.068Z,0.90
2022-10-11T00:38:02.334Z,1.17
2022-10-11T00:40:30.663Z,0.60
2022-10-11T00:42:58.907Z,0.50
2022-10-11T00:45:46.024Z,0.70
2022-10-11T00:48:17.134Z,0.68
2022-10-11T00:50:46.741Z,0.52
2022-10-11T00:53:15.010Z,0.75
2022-10-11T00:55:48.022Z,0.80
2022-10-11T00:58:16.461Z,0.50
2022-10-11T01:00:44.856Z,1.45
2022-10-11T01:03:13.094Z,0.75
2022-10-11T01:05:41.604Z,1.10
2022-10-11T01:08:11.200Z,0.70
2022-10-11T01:10:39.472Z,0.93
2022-10-11T01:13:12.983Z,1.00
2022-10-11T01:15:43.302Z,1.35
2022-10-11T01:18:14.147Z,0.65
2022-10-11T01:20:47.298Z,1.35
2022-10-11T01:23:33.478Z,0.90
2022-10-11T01:26:15.019Z,0.82
2022-10-11T01:28:45.389Z,0.52
2022-10-11T01:31:19.366Z,0.90
2022-10-11T01:33:52.465Z,0.82
2022-10-11T01:36:27.757Z,0.85
2022-10-11T01:38:57.947Z,1.23
2022-10-11T01:41:27.486Z,0.77
2022-10-11T01:43:58.575Z,0.93
2022-10-11T01:46:29.052Z,0.57
2022-10-11T01:48:58.525Z,0.75
2022-10-11T01:51:29.112Z,0.57
2022-10-11T01:54:12.881Z,0.90
2022-10-11T01:56:47.776Z,0.50
2022-10-11T01:59:21.227Z,0.82
2022-10-11T02:01:56.175Z,1.00
2022-10-11T02:06:56.072Z,1.02
2022-10-11T02:09:26.762Z,0.77
2022-10-11T02:11:56.933Z,0.77
2022-10-11T02:14:27.212Z,0.70
2022-10-11T02:17:01.265Z,0.55
2022-10-11T02:19:32.120Z,0.70
2022-10-11T02:22:03.052Z,1.30
2022-10-11T02:24:33.243Z,0.70
2022-10-11T02:27:03.612Z,0.73
2022-10-11T02:29:34.414Z,0.82
2022-10-11T02:32:04.116Z,0.60
2022-10-11T02:34:33.864Z,0.60
2022-10-11T02:37:06.174Z,0.70
2022-10-11T02:39:38.126Z,0.63
2022-10-11T02:42:08.432Z,0.70
2022-10-11T02:44:38.906Z,1.08
2022-10-11T02:47:09.487Z,0.80
2022-10-11T02:49:37.952Z,0.88
2022-10-11T02:52:07.334Z,0.93
2022-10-11T02:54:35.692Z,1.05
2022-10-11T02:57:03.919Z,0.50
2022-10-11T02:59:32.145Z,1.13
2022-10-11T03:02:01.092Z,0.60
2022-10-11T03:04:30.754Z,0.75
2022-10-11T03:06:59.005Z,0.90
2022-10-11T03:09:27.317Z,0.50
2022-10-11T03:11:55.571Z,0.90
2022-10-11T03:14:23.816Z,0.98
2022-10-11T03:16:52.050Z,0.57
2022-10-11T03:19:20.419Z,0.70
2022-10-11T03:21:50.014Z,0.75
2022-10-11T03:24:18.266Z,0.55
2022-10-11T03:26:46.514Z,1.20
2022-10-11T03:29:14.744Z,0.80
2022-10-11T03:31:43.125Z,0.52
2022-10-11T03:34:11.471Z,1.05
2022-10-11T03:36:39.759Z,0.60
2022-10-11T03:39:09.610Z,0.55
2022-10-11T03:41:37.844Z,0.75
2022-10-11T03:44:06.105Z,0.90
2022-10-11T03:46:34.352Z,1.08
2022-10-11T03:49:02.623Z,0.32
2022-10-11T03:51:31.234Z,0.65
2022-10-11T03:53:59.522Z,0.88
2022-10-11T03:56:29.114Z,0.98
2022-10-11T03:58:57.358Z,0.85
2022-10-11T04:01:25.718Z,0.95
2022-10-11T04:03:56.512Z,0.40
2022-10-11T04:06:24.789Z,1.08
2022-10-11T04:08:53.021Z,0.77
2022-10-11T04:11:21.282Z,0.82
2022-10-11T04:13:50.866Z,0.60
2022-10-11T04:16:19.121Z,1.10
2022-10-11T04:18:47.316Z,0.47
2022-10-11T04:21:15.523Z,0.82
2022-10-11T04:23:43.794Z,1.10
2022-10-11T04:26:12.060Z,0.60
2022-10-11T04:28:40.401Z,0.52
2022-10-11T04:31:10.956Z,1.25
2022-10-11T04:33:39.199Z,1.05
2022-10-11T04:36:08.097Z,0.88
2022-10-11T04:38:36.893Z,0.52
2022-10-11T04:41:08.854Z,1.00
2022-10-11T04:43:37.126Z,0.77
2022-10-11T04:46:06.085Z,0.55
2022-10-11T04:48:36.189Z,0.65
2022-10-11T04:51:04.505Z,0.65
2022-10-11T04:53:32.779Z,0.63
2022-10-11T04:56:01.900Z,0.60
2022-10-11T04:58:30.489Z,1.02
2022-10-11T05:00:58.774Z,0.50
2022-10-11T05:03:27.158Z,0.65
2022-10-11T05:05:56.860Z,0.63
2022-10-11T05:08:25.368Z,0.73
2022-10-11T05:10:57.766Z,0.60
2022-10-11T05:13:26.388Z,0.73
2022-10-11T05:15:54.822Z,0.63
2022-10-11T05:18:23.382Z,0.38
2022-10-11T05:20:51.802Z,0.65
2022-10-11T05:23:21.411Z,0.75
2022-10-11T05:25:49.693Z,0.82
2022-10-11T05:28:17.980Z,0.50
2022-10-11T05:30:46.286Z,0.50
2022-10-11T05:33:14.494Z,0.65
2022-10-11T05:35:42.889Z,0.80
2022-10-11T05:38:11.320Z,0.45
2022-10-11T05:40:41.098Z,0.82
2022-10-11T05:43:09.381Z,0.88
2022-10-11T05:45:37.996Z,0.70
2022-10-11T05:48:06.371Z,0.95
2022-10-11T05:50:34.676Z,0.30
2022-10-11T05:53:02.930Z,1.30
2022-10-11T05:55:31.180Z,0.80
2022-10-11T05:58:00.808Z,0.80
2022-10-11T06:00:29.196Z,0.82
2022-10-11T06:02:57.923Z,0.50
2022-10-11T06:05:26.199Z,0.60
2022-10-11T06:07:54.465Z,0.50
2022-10-11T06:10:22.763Z,0.45
2022-10-11T06:12:51.057Z,0.80
2022-10-11T06:15:20.759Z,0.73
2022-10-11T06:17:49.178Z,0.65
2022-10-11T06:20:17.630Z,0.70
2022-10-11T06:22:45.958Z,0.52
2022-10-11T06:25:14.221Z,0.60
2022-10-11T06:27:42.452Z,0.88
2022-10-11T06:30:11.173Z,0.70
2022-10-11T06:32:40.780Z,0.40
2022-10-11T06:35:09.563Z,0.50
2022-10-11T06:37:37.900Z,0.85
2022-10-11T06:40:06.578Z,0.88
2022-10-11T06:42:34.907Z,0.60
2022-10-11T06:45:03.235Z,0.65
2022-10-11T06:47:31.525Z,0.90
2022-10-11T06:50:01.117Z,0.47
2022-10-11T06:52:29.414Z,0.75
2022-10-11T06:54:57.816Z,0.40
2022-10-11T06:57:26.224Z,0.50
2022-10-11T06:59:54.573Z,0.63
2022-10-11T07:02:23.007Z,0.70
2022-10-11T07:04:51.298Z,0.95
2022-10-11T07:07:20.925Z,0.65
2022-10-11T07:09:49.289Z,0.65
2022-10-11T07:12:17.637Z,0.65
2022-10-11T07:14:45.977Z,0.55
2022-10-11T07:17:14.377Z,0.95
2022-10-11T07:19:42.780Z,0.82
2022-10-11T07:22:11.134Z,0.80
2022-10-11T07:24:40.777Z,0.98
2022-10-11T07:27:09.155Z,0.35
2022-10-11T07:29:37.536Z,0.80
2022-10-11T07:32:06.056Z,0.75
2022-10-11T07:34:34.455Z,1.02
2022-10-11T07:37:02.890Z,0.80
2022-10-11T07:39:32.047Z,1.02
2022-10-11T07:42:02.024Z,1.15
2022-10-11T07:44:30.490Z,0.45
2022-10-11T07:46:58.876Z,0.63
2022-10-11T07:49:27.268Z,0.85
2022-10-11T07:51:55.706Z,1.52
2022-10-11T07:54:24.076Z,1.02
2022-10-11T07:56:52.497Z,0.95
2022-10-11T07:59:22.178Z,1.02
2022-10-11T08:01:50.749Z,1.63
2022-10-11T08:04:21.384Z,0.80
2022-10-11T08:06:53.306Z,0.98
2022-10-11T08:09:21.965Z,0.95
2022-10-11T08:11:50.647Z,1.02
2022-10-11T08:14:19.071Z,1.13
2022-10-11T08:16:49.124Z,0.80
2022-10-11T08:19:18.770Z,0.95
2022-10-11T08:21:47.124Z,1.38
2022-10-11T08:24:16.440Z,1.13
2022-10-11T08:26:45.075Z,1.48
2022-10-11T08:29:14.330Z,0.63
2022-10-11T08:31:44.699Z,0.73
2022-10-11T08:34:16.916Z,0.80
2022-10-11T08:36:45.352Z,1.08
2022-10-11T08:39:13.833Z,0.77
2022-10-11T08:41:43.846Z,1.05
2022-10-11T08:44:34.158Z,0.93
2022-10-11T08:47:22.389Z,0.95
2022-10-11T08:49:52.803Z,0.70
2022-10-11T08:52:23.055Z,0.50
2022-10-11T08:54:53.684Z,0.80
2022-10-11T08:57:23.247Z,0.80
2022-10-11T08:59:53.417Z,1.08
2022-10-11T09:02:43.638Z,1.13
2022-10-11T09:05:19.845Z,0.60
2022-10-11T09:07:53.204Z,0.93
2022-10-11T09:10:42.317Z,0.55
2022-10-11T09:13:17.463Z,0.80
2022-10-11T09:15:50.708Z,0.88
2022-10-11T09:18:36.816Z,0.52
2022-10-11T09:21:13.418Z,1.10
2022-10-11T09:23:53.611Z,0.90
2022-10-11T09:26:24.917Z,0.90
2022-10-11T09:29:01.019Z,0.60
2022-10-11T09:31:29.937Z,0.80
2022-10-11T09:34:00.992Z,2.00
2022-10-11T09:36:32.878Z,0.95
2022-10-11T09:39:06.635Z,0.77
2022-10-11T09:41:37.372Z,1.47
2022-10-11T09:44:08.544Z,1.00
2022-10-11T09:46:38.245Z,0.55
2022-10-11T09:49:09.289Z,1.27
2022-10-11T09:51:39.698Z,0.90
2022-10-11T09:54:10.462Z,0.93
2022-10-11T09:56:43.038Z,0.80
2022-10-11T09:59:22.906Z,0.70
2022-10-11T10:01:51.242Z,0.90
2022-10-11T10:04:19.958Z,1.15
2022-10-11T10:06:49.589Z,0.93
2022-10-11T10:09:22.508Z,0.65
2022-10-11T10:11:50.804Z,1.08
2022-10-11T10:14:21.954Z,0.88
2022-10-11T10:16:50.461Z,0.70
2022-10-11T10:19:21.436Z,1.25
2022-10-11T10:21:51.795Z,1.13
2022-10-11T10:24:21.037Z,1.08
2022-10-11T10:27:04.202Z,0.80
2022-10-11T10:29:32.513Z,1.10
2022-10-11T10:32:20.003Z,0.70
2022-10-11T10:34:54.857Z,0.65
2022-10-11T10:37:27.402Z,1.88
2022-10-11T10:39:58.135Z,1.00
2022-10-11T10:42:26.489Z,0.80
2022-10-11T10:44:56.989Z,0.77
2022-10-11T10:47:30.970Z,0.93
2022-10-11T10:50:02.923Z,0.70
2022-10-11T10:52:47.930Z,0.60
2022-10-11T10:55:21.876Z,0.47
2022-10-11T10:57:54.824Z,0.60
2022-10-11T11:00:24.330Z,0.75
2022-10-11T11:02:56.448Z,1.08
2022-10-11T11:05:27.791Z,0.45
2022-10-11T11:08:01.053Z,1.13
2022-10-11T11:10:32.443Z,0.88
2022-10-11T11:13:07.691Z,0.77
2022-10-11T11:15:40.140Z,1.08
2022-10-11T11:18:17.554Z,0.60
2022-10-11T11:20:52.778Z,0.68
2022-10-11T11:23:27.150Z,1.10
2022-10-11T11:26:03.232Z,0.90
2022-10-11T11:28:50.339Z,1.05
2022-10-11T11:31:29.655Z,1.25
2022-10-11T11:34:03.026Z,0.88
2022-10-11T11:36:37.100Z,1.00
2022-10-11T11:39:08.131Z,1.67
2022-10-11T11:41:39.266Z,1.00
2022-10-11T11:44:12.758Z,0.73
2022-10-11T11:46:43.649Z,0.75
2022-10-11T11:49:15.206Z,1.05
2022-10-11T11:51:45.708Z,0.93
2022-10-11T11:54:22.736Z,1.00
2022-10-11T11:56:53.824Z,1.20
2022-10-11T12:02:29.804Z,0.90
2022-10-11T12:04:58.515Z,0.60
2022-10-11T12:07:28.493Z,1.08
2022-10-11T12:10:15.951Z,0.80
2022-10-11T12:12:45.853Z,0.68
2022-10-11T12:15:19.833Z,0.60
2022-10-11T12:18:02.914Z,0.68
2022-10-11T12:20:32.538Z,1.48
2022-10-11T12:23:02.184Z,0.45
2022-10-11T12:25:36.045Z,0.85
2022-10-11T12:28:25.928Z,0.93
2022-10-11T12:30:55.055Z,0.85
2022-10-11T12:33:24.641Z,0.80
2022-10-11T12:36:05.722Z,1.25
2022-10-11T12:38:39.747Z,0.63
2022-10-11T12:41:26.599Z,1.30
2022-10-11T12:44:15.653Z,0.70
2022-10-11T12:46:59.436Z,1.30
2022-10-11T12:49:32.294Z,0.90
2022-10-11T12:52:02.170Z,1.00
2022-10-11T12:54:38.259Z,0.73
2022-10-11T12:57:20.863Z,1.08
2022-10-11T12:59:51.209Z,1.30
2022-10-11T13:02:27.552Z,0.90
2022-10-11T13:05:06.403Z,0.77
2022-10-11T13:07:36.206Z,0.80
2022-10-11T13:10:06.505Z,0.80
2022-10-11T13:12:38.299Z,0.70
2022-10-11T13:15:12.083Z,0.57
2022-10-11T13:17:41.432Z,0.80
2022-10-11T13:20:15.265Z,0.60
2022-10-11T13:22:45.693Z,1.20
2022-10-11T13:25:17.619Z,1.52
2022-10-11T13:27:46.555Z,0.77
2022-10-11T13:30:18.840Z,1.63
2022-10-11T13:32:47.383Z,0.85
2022-10-11T13:35:22.339Z,0.88
2022-10-11T13:37:53.033Z,0.88
2022-10-11T13:40:22.819Z,0.60
2022-10-11T13:42:51.743Z,0.57
2022-10-11T13:45:22.788Z,1.67
2022-10-11T13:47:51.654Z,1.10
2022-10-11T13:50:30.335Z,1.30
2022-10-11T13:53:00.354Z,1.60
2022-10-11T13:55:30.833Z,1.58
2022-10-11T13:58:00.719Z,1.95
2022-10-11T14:00:35.224Z,2.25
2022-10-11T14:03:05.885Z,2.22
2022-10-11T14:05:36.506Z,2.13
2022-10-11T14:08:06.496Z,1.60
2022-10-11T14:10:35.302Z,1.75
2022-10-11T14:13:23.902Z,1.60
2022-10-11T14:16:04.867Z,1.13
2022-10-11T14:18:40.656Z,1.20
2022-10-11T14:21:27.394Z,1.42
2022-10-11T14:23:56.989Z,1.42
2022-10-11T14:26:26.160Z,1.48
2022-10-11T14:28:56.057Z,1.77
2022-10-11T14:31:25.937Z,1.15
2022-10-11T14:33:54.395Z,1.48
2022-10-11T14:36:23.059Z,1.33
2022-10-11T14:38:51.469Z,1.92
2022-10-11T14:41:19.865Z,1.33
2022-10-11T14:43:48.420Z,1.30
2022-10-11T14:46:22.397Z,0.80
2022-10-11T14:48:56.005Z,1.10
2022-10-11T14:51:26.378Z,1.30
2022-10-11T14:53:54.828Z,1.35
2022-10-11T14:56:23.116Z,1.02
2022-10-11T14:58:51.739Z,0.70
2022-10-11T15:01:20.394Z,1.10
2022-10-11T15:03:48.729Z,1.00
2022-10-11T15:06:20.484Z,0.95
2022-10-11T15:08:48.866Z,0.88
2022-10-11T15:11:18.589Z,1.23
2022-10-11T15:13:47.064Z,1.40
2022-10-11T15:16:16.264Z,1.27
2022-10-11T15:18:50.742Z,1.05
2022-10-11T15:21:21.370Z,1.52
2022-10-11T15:23:49.783Z,1.00
2022-10-11T15:26:19.482Z,1.40
2022-10-11T15:28:48.117Z,1.00
2022-10-11T15:31:16.712Z,1.00
2022-10-11T15:33:44.980Z,0.88
2022-10-11T15:36:16.181Z,1.30
2022-10-11T15:38:46.074Z,1.08
2022-10-11T15:41:15.672Z,1.08
2022-10-11T15:43:44.868Z,0.93
2022-10-11T15:46:14.715Z,1.27
2022-10-11T15:48:43.105Z,0.73
2022-10-11T15:51:11.882Z,0.93
2022-10-11T15:53:40.289Z,0.93
2022-10-11T15:56:17.577Z,0.80
2022-10-11T15:58:46.012Z,0.80
2022-10-11T16:01:15.186Z,0.70
2022-10-11T16:03:43.735Z,0.88
2022-10-11T16:06:13.004Z,0.75
2022-10-11T16:08:41.750Z,0.77
2022-10-11T16:11:13.872Z,1.10
2022-10-11T16:13:42.241Z,1.17
2022-10-11T16:16:11.447Z,1.20
2022-10-11T16:18:40.068Z,1.10
2022-10-11T16:21:09.796Z,0.85
2022-10-11T16:23:38.801Z,0.73
2022-10-11T16:26:08.793Z,1.00
2022-10-11T16:28:38.906Z,1.15
2022-10-11T16:31:08.512Z,1.40
2022-10-11T16:33:45.311Z,1.20
2022-10-11T16:36:31.937Z,0.98
2022-10-11T16:39:02.778Z,0.90
2022-10-11T16:41:31.103Z,0.88
2022-10-11T16:44:00.798Z,0.60
2022-10-11T16:46:29.168Z,0.93
2022-10-11T16:48:57.548Z,1.10
2022-10-11T16:51:26.049Z,1.20
2022-10-11T16:53:54.491Z,1.00
2022-10-11T16:56:25.061Z,1.33
2022-10-11T16:58:55.900Z,1.27
2022-10-11T17:01:25.565Z,1.20
2022-10-11T17:03:54.223Z,0.95
2022-10-11T17:06:22.587Z,0.68
2022-10-11T17:08:50.893Z,1.35
2022-10-11T17:11:19.200Z,0.90
2022-10-11T17:13:47.865Z,0.80
2022-10-11T17:16:16.697Z,1.13
2022-10-11T17:18:46.361Z,1.17
2022-10-11T17:21:16.482Z,1.10
2022-10-11T17:23:45.299Z,0.63
2022-10-11T17:26:16.090Z,1.02
2022-10-11T17:28:44.736Z,1.55
2022-10-11T17:31:13.057Z,1.40
2022-10-11T17:33:41.366Z,1.52
2022-10-11T17:36:22.199Z,1.95
2022-10-11T17:38:50.691Z,2.20
2022-10-11T17:41:19.759Z,1.75
2022-10-11T17:43:48.164Z,1.33
2022-10-11T17:46:17.292Z,2.15
2022-10-11T17:48:45.785Z,1.50
2022-10-11T17:51:15.428Z,1.45
2022-10-11T17:53:45.925Z,1.48
2022-10-11T17:56:15.379Z,1.50
2022-10-11T17:58:43.863Z,1.35
2022-10-11T18:01:13.607Z,1.15
2022-10-11T18:03:42.677Z,2.00
2022-10-11T18:06:13.727Z,1.67
2022-10-11T18:08:42.419Z,1.50
2022-10-11T18:11:14.198Z,1.33
2022-10-11T18:13:46.123Z,1.98
2022-10-11T18:16:15.182Z,1.70
2022-10-11T18:18:44.290Z,1.50
2022-10-11T18:21:12.984Z,2.17
2022-10-11T18:23:41.741Z,1.88
2022-10-11T18:26:12.520Z,2.05
2022-10-11T18:28:41.755Z,1.50
2022-10-11T18:31:13.569Z,2.08
2022-10-11T18:33:43.301Z,1.80
2022-10-11T18:36:13.689Z,2.53
2022-10-11T18:38:46.320Z,1.48
2022-10-11T18:41:17.618Z,1.70
2022-10-11T18:43:50.368Z,1.20
2022-10-11T18:46:19.113Z,1.30
2022-10-11T18:48:50.220Z,1.42
2022-10-11T18:51:20.107Z,1.65
2022-10-11T18:53:48.975Z,1.25
2022-10-11T18:56:21.332Z,1.77
2022-10-11T18:58:51.003Z,1.77
2022-10-11T19:01:20.538Z,1.85
2022-10-11T19:03:50.182Z,1.77
2022-10-11T19:06:19.850Z,0.98
2022-10-11T19:08:49.964Z,2.05
2022-10-11T19:11:22.456Z,1.45
2022-10-11T19:13:56.201Z,1.40
2022-10-11T19:16:25.038Z,1.58
2022-10-11T19:18:54.317Z,1.98
2022-10-11T19:21:23.038Z,1.80
2022-10-11T19:23:52.217Z,1.50
2022-10-11T19:26:23.343Z,2.08
2022-10-11T19:28:56.590Z,2.38
2022-10-11T19:31:25.385Z,1.60
2022-10-11T19:33:54.237Z,1.20
2022-10-11T19:36:22.970Z,2.05
2022-10-11T19:38:52.758Z,2.10
2022-10-11T19:41:23.202Z,1.40
2022-10-11T19:43:52.583Z,2.28
2022-10-11T19:46:44.494Z,1.95
2022-10-11T19:49:15.289Z,1.30
2022-10-11T19:51:44.134Z,1.80
2022-10-11T19:54:13.609Z,1.98
2022-10-11T19:56:43.564Z,1.52
2022-10-11T19:59:12.267Z,1.85
2022-10-11T20:01:41.538Z,2.83
2022-10-11T20:04:27.395Z,1.98
2022-10-11T20:07:00.100Z,1.20
2022-10-11T20:09:30.219Z,1.45
2022-10-11T20:12:01.313Z,2.03
2022-10-11T20:14:29.934Z,1.83
2022-10-11T20:16:58.584Z,1.83
2022-10-11T20:19:30.585Z,2.08
2022-10-11T20:22:00.468Z,2.00
2022-10-11T20:24:33.286Z,1.75
2022-10-11T20:27:03.953Z,1.83
2022-10-11T20:29:32.953Z,2.00
2022-10-11T20:32:01.839Z,2.30
2022-10-11T20:34:30.631Z,1.92
2022-10-11T20:36:59.664Z,1.60
2022-10-11T20:39:28.635Z,1.50
2022-10-11T20:41:57.521Z,1.65
2022-10-11T20:44:27.727Z,1.88
2022-10-11T20:47:00.289Z,1.52
2022-10-11T20:49:31.368Z,2.40
2022-10-11T20:51:59.665Z,1.88
2022-10-11T20:54:28.990Z,2.28
2022-10-11T20:56:58.080Z,1.75
2022-10-11T20:59:27.753Z,1.38
2022-10-11T21:01:56.064Z,2.00
2022-10-11T21:04:24.425Z,2.28
2022-10-11T21:06:52.690Z,2.03
2022-10-11T21:09:21.036Z,1.55
2022-10-11T21:11:49.294Z,2.72
2022-10-11T21:14:17.881Z,1.40
2022-10-11T21:16:47.556Z,2.30
2022-10-11T21:19:16.345Z,1.98
2022-10-11T21:21:49.705Z,1.85
2022-10-11T21:24:21.428Z,2.13
2022-10-11T21:26:49.834Z,1.50
2022-10-11T21:29:18.364Z,2.55
2022-10-11T21:31:47.992Z,2.55
2022-10-11T21:34:16.235Z,2.35
2022-10-11T21:36:44.559Z,1.77
2022-10-11T21:39:12.896Z,2.25
2022-10-11T21:41:42.107Z,1.73
2022-10-11T21:44:10.447Z,2.05
2022-10-11T21:49:28.315Z,1.83
2022-10-11T21:51:56.601Z,1.98
2022-10-11T21:54:24.890Z,2.35
2022-10-11T21:56:53.155Z,1.83
2022-10-11T21:59:21.425Z,2.30
2022-10-11T22:01:50.226Z,2.08
2022-10-11T22:04:18.533Z,2.20
2022-10-11T22:06:48.137Z,1.20
2022-10-11T22:09:16.425Z,1.92
2022-10-11T22:11:44.892Z,1.42
2022-10-11T22:14:13.168Z,1.88
2022-10-11T22:16:41.454Z,1.77
2022-10-11T22:19:09.850Z,1.85
2022-10-11T22:21:41.379Z,2.17
2022-10-11T22:26:42.546Z,2.13
2022-10-11T22:29:11.066Z,1.38
2022-10-11T22:31:39.359Z,1.65
2022-10-11T22:34:07.652Z,1.73
2022-10-11T22:36:35.882Z,1.77
2022-10-11T22:39:07.717Z,2.03
2022-10-11T22:41:36.810Z,2.85
2022-10-11T22:44:06.730Z,2.10
2022-10-11T22:46:35.029Z,1.95
2022-10-11T22:49:03.284Z,1.95
2022-10-11T22:51:31.597Z,1.83
2022-10-11T22:53:59.909Z,2.00
2022-10-11T22:56:28.186Z,1.52
2022-10-11T22:58:56.430Z,1.90
2022-10-11T23:01:26.036Z,2.22
2022-10-11T23:03:54.314Z,2.45
2022-10-11T23:06:22.635Z,2.00
2022-10-11T23:08:51.119Z,2.53
2022-10-11T23:11:19.426Z,3.03
2022-10-11T23:13:47.676Z,2.75
2022-10-11T23:16:15.942Z,2.35
2022-10-11T23:18:45.575Z,2.65
2022-10-11T23:21:13.916Z,1.70
2022-10-11T23:23:42.172Z,1.83
2022-10-11T23:26:12.580Z,1.58
2022-10-11T23:28:41.197Z,1.90
2022-10-11T23:31:10.237Z,2.00
2022-10-11T23:33:38.494Z,2.38
2022-10-11T23:36:14.416Z,1.50
2022-10-11T23:38:42.651Z,3.22
2022-10-11T23:41:10.917Z,2.63
2022-10-11T23:43:39.228Z,2.72
2022-10-11T23:46:07.811Z,2.45
2022-10-11T23:48:36.094Z,2.53
2022-10-11T23:51:04.344Z,2.70
2022-10-11T23:53:34.157Z,2.03
2022-10-11T23:56:02.407Z,2.17
2022-10-11T23:58:30.634Z,2.42
